createdAt,value
2023-04-12T00:01:26.222Z,15.65
2023-04-12T00:03:56.957Z,16.38
2023-04-12T00:06:32.487Z,14.52
2023-04-12T00:09:02.540Z,15.40
2023-04-12T00:11:33.208Z,14.35
2023-04-12T00:14:02.397Z,13.80
2023-04-12T00:16:31.159Z,13.25
2023-04-12T00:19:01.712Z,14.10
2023-04-12T00:21:30.690Z,14.52
2023-04-12T00:23:59.871Z,13.70
2023-04-12T00:26:29.011Z,15.68
2023-04-12T00:28:58.055Z,14.82
2023-04-12T00:31:27.047Z,15.40
2023-04-12T00:33:56.496Z,15.13
2023-04-12T00:36:27.404Z,15.18
2023-04-12T00:38:56.598Z,15.60
2023-04-12T00:41:25.416Z,15.48
2023-04-12T00:43:54.742Z,11.90
2023-04-12T00:46:23.932Z,11.27
2023-04-12T00:48:54.334Z,9.13
2023-04-12T00:51:27.321Z,8.77
2023-04-12T00:53:58.746Z,8.60
2023-04-12T00:56:28.592Z,7.55
2023-04-12T00:58:58.726Z,6.55
2023-04-12T01:01:28.310Z,7.03
2023-04-12T01:04:01.346Z,6.43
2023-04-12T01:06:55.792Z,6.20
2023-04-12T01:09:43.294Z,5.68
2023-04-12T01:12:29.419Z,6.43
2023-04-12T01:15:08.595Z,6.93
2023-04-12T01:17:48.782Z,6.30
2023-04-12T01:20:25.181Z,6.13
2023-04-12T01:23:35.175Z,7.20
2023-04-12T01:26:24.470Z,6.60
2023-04-12T01:28:56.546Z,6.50
2023-04-12T01:31:28.899Z,6.80
2023-04-12T01:34:00.638Z,7.38
2023-04-12T01:36:31.797Z,7.30
2023-04-12T01:39:06.089Z,8.40
2023-04-12T01:41:41.904Z,8.32
2023-04-12T01:44:15.338Z,8.70
2023-04-12T01:46:46.819Z,8.98
2023-04-12T01:49:16.724Z,9.52
2023-04-12T01:51:56.634Z,9.23
2023-04-12T01:54:30.541Z,9.18
2023-04-12T01:57:04.807Z,10.60
2023-04-12T01:59:41.914Z,11.07
2023-04-12T02:02:14.093Z,11.65
2023-04-12T02:04:44.062Z,11.68
2023-04-12T02:07:15.149Z,12.88
2023-04-12T02:09:43.834Z,12.85
2023-04-12T02:12:13.295Z,13.50
2023-04-12T02:14:43.489Z,13.50
2023-04-12T02:17:13.322Z,14.48
2023-04-12T02:19:42.856Z,14.77
2023-04-12T02:22:13.424Z,13.30
2023-04-12T02:24:42.153Z,15.30
2023-04-12T02:27:11.607Z,14.27
2023-04-12T02:29:41.377Z,14.93
2023-04-12T02:32:13.026Z,15.40
2023-04-12T02:34:42.200Z,15.00
2023-04-12T02:37:18.397Z,15.50
2023-04-12T02:39:47.087Z,15.93
2023-04-12T02:42:17.099Z,15.65
2023-04-12T02:44:48.738Z,16.48
2023-04-12T02:47:19.778Z,15.60
2023-04-12T02:49:50.934Z,16.50
2023-04-12T02:52:21.473Z,15.52
2023-04-12T02:55:04.209Z,14.63
2023-04-12T02:57:33.308Z,14.73
2023-04-12T03:00:06.078Z,15.20
2023-04-12T03:02:45.052Z,16.02
2023-04-12T03:05:21.358Z,14.95
2023-04-12T03:07:50.583Z,15.50
2023-04-12T03:10:23.620Z,15.05
2023-04-12T03:13:12.888Z,14.23
2023-04-12T03:15:49.600Z,14.55
2023-04-12T03:18:21.899Z,14.65
2023-04-12T03:20:53.511Z,14.57
2023-04-12T03:23:22.474Z,14.30
2023-04-12T03:26:05.011Z,13.80
2023-04-12T03:28:37.283Z,14.73
2023-04-12T03:31:08.861Z,14.07
2023-04-12T03:33:43.631Z,14.68
2023-04-12T03:36:22.401Z,14.38
2023-04-12T03:38:58.293Z,14.60
2023-04-12T03:41:27.477Z,14.23
2023-04-12T03:43:57.338Z,14.95
2023-04-12T03:46:26.469Z,15.55
2023-04-12T03:49:01.400Z,14.13
2023-04-12T03:51:31.096Z,14.95
2023-04-12T03:54:06.099Z,14.68
2023-04-12T03:56:46.042Z,14.35
2023-04-12T03:59:22.538Z,14.57
2023-04-12T04:01:52.408Z,14.32
2023-04-12T04:04:24.329Z,15.23
2023-04-12T04:06:57.727Z,14.20
2023-04-12T04:09:28.554Z,14.15
2023-04-12T04:11:57.413Z,13.77
2023-04-12T04:14:27.816Z,13.80
2023-04-12T04:16:56.991Z,13.68
2023-04-12T04:19:27.490Z,14.13
2023-04-12T04:21:56.331Z,14.40
2023-04-12T04:24:26.067Z,14.38
2023-04-12T04:26:58.820Z,13.75
2023-04-12T04:29:30.118Z,14.07
2023-04-12T04:31:59.799Z,13.52
2023-04-12T04:34:30.246Z,12.65
2023-04-12T04:37:09.759Z,14.13
2023-04-12T04:39:42.205Z,12.57
2023-04-12T04:42:12.099Z,13.45
2023-04-12T04:44:42.850Z,13.38
2023-04-12T04:47:12.908Z,14.05
2023-04-12T04:49:44.902Z,13.73
2023-04-12T04:52:23.800Z,13.57
2023-04-12T04:54:57.700Z,13.00
2023-04-12T04:57:28.791Z,13.20
2023-04-12T04:59:58.862Z,14.07
2023-04-12T05:02:28.511Z,13.50
2023-04-12T05:05:00.049Z,12.57
2023-04-12T05:07:30.468Z,12.65
2023-04-12T05:10:00.576Z,12.82
2023-04-12T05:12:31.389Z,12.98
2023-04-12T05:15:11.165Z,12.48
2023-04-12T05:17:42.061Z,12.02
2023-04-12T05:20:12.832Z,12.73
2023-04-12T05:22:41.633Z,12.65
2023-04-12T05:25:11.564Z,13.20
2023-04-12T05:27:50.477Z,12.82
2023-04-12T05:30:22.067Z,12.10
2023-04-12T05:32:51.873Z,12.13
2023-04-12T05:35:23.146Z,12.10
2023-04-12T05:37:56.572Z,12.75
2023-04-12T05:40:26.486Z,12.82
2023-04-12T05:42:56.309Z,12.90
2023-04-12T05:45:26.389Z,12.15
2023-04-12T05:47:55.716Z,13.35
2023-04-12T05:50:26.920Z,12.98
2023-04-12T05:52:56.852Z,13.45
2023-04-12T05:55:30.882Z,12.68
2023-04-12T05:57:59.708Z,12.88
2023-04-12T06:00:30.010Z,14.15
2023-04-12T06:02:59.460Z,13.73
2023-04-12T06:05:30.076Z,14.15
2023-04-12T06:07:59.992Z,12.95
2023-04-12T06:10:29.160Z,13.25
2023-04-12T06:12:57.964Z,13.40
2023-04-12T06:15:27.312Z,13.80
2023-04-12T06:17:56.700Z,13.70
2023-04-12T06:20:25.798Z,13.85
2023-04-12T06:22:56.510Z,14.80
2023-04-12T06:25:26.009Z,15.68
2023-04-12T06:27:56.327Z,15.38
2023-04-12T06:30:26.969Z,15.30
2023-04-12T06:32:56.890Z,14.85
2023-04-12T06:35:25.855Z,15.52
2023-04-12T06:37:56.333Z,15.70
2023-04-12T06:40:25.218Z,16.05
2023-04-12T06:42:54.642Z,15.60
2023-04-12T06:45:25.679Z,15.95
2023-04-12T06:47:57.014Z,16.83
2023-04-12T06:50:27.050Z,15.35
2023-04-12T06:52:57.445Z,16.05
2023-04-12T06:55:27.091Z,14.75
2023-04-12T06:57:56.502Z,14.30
2023-04-12T07:00:26.081Z,16.65
2023-04-12T07:02:55.251Z,15.93
2023-04-12T07:05:24.419Z,16.05
2023-04-12T07:07:53.401Z,15.82
2023-04-12T07:10:23.477Z,15.65
2023-04-12T07:12:52.860Z,15.65
2023-04-12T07:15:21.669Z,14.82
2023-04-12T07:17:51.887Z,14.95
2023-04-12T07:20:20.768Z,13.85
2023-04-12T07:22:49.801Z,14.07
2023-04-12T07:25:18.768Z,14.82
2023-04-12T07:27:51.282Z,15.98
2023-04-12T07:30:21.014Z,15.13
2023-04-12T07:32:50.615Z,15.27
2023-04-12T07:35:20.684Z,15.10
2023-04-12T07:37:49.798Z,14.45
2023-04-12T07:40:18.662Z,14.90
2023-04-12T07:42:49.031Z,15.15
2023-04-12T07:45:18.072Z,14.57
2023-04-12T07:47:47.841Z,14.73
2023-04-12T07:50:16.644Z,15.13
2023-04-12T07:52:45.697Z,13.98
2023-04-12T07:55:14.379Z,13.90
2023-04-12T07:57:43.304Z,14.48
2023-04-12T08:00:15.610Z,14.13
2023-04-12T08:02:44.842Z,13.63
2023-04-12T08:05:13.861Z,15.10
2023-04-12T08:07:42.916Z,14.95
2023-04-12T08:10:11.886Z,13.93
2023-04-12T08:12:41.333Z,14.10
2023-04-12T08:15:10.943Z,15.60
2023-04-12T08:17:43.966Z,13.93
2023-04-12T08:20:13.853Z,14.32
2023-04-12T08:22:42.962Z,14.30
2023-04-12T08:25:11.946Z,13.75
2023-04-12T08:27:43.415Z,14.30
2023-04-12T08:30:14.229Z,14.35
2023-04-12T08:32:44.938Z,13.45
2023-04-12T08:35:13.895Z,14.02
2023-04-12T08:37:43.026Z,14.63
2023-04-12T08:40:12.169Z,13.88
2023-04-12T08:42:41.453Z,14.27
2023-04-12T08:45:12.841Z,14.07
2023-04-12T08:47:45.631Z,14.70
2023-04-12T08:50:14.754Z,14.68
2023-04-12T08:52:44.958Z,14.15
2023-04-12T08:55:14.081Z,14.43
2023-04-12T08:57:44.457Z,14.70
2023-04-12T09:00:16.812Z,13.52
2023-04-12T09:02:49.080Z,14.50
2023-04-12T09:05:18.528Z,14.93
2023-04-12T09:07:47.598Z,13.30
2023-04-12T09:10:33.618Z,13.52
2023-04-12T09:13:04.009Z,12.02
2023-04-12T09:15:33.204Z,12.82
2023-04-12T09:18:09.055Z,13.38
2023-04-12T09:20:39.045Z,13.10
2023-04-12T09:23:22.056Z,13.15
2023-04-12T09:25:53.079Z,13.45
2023-04-12T09:28:25.985Z,14.63
2023-04-12T09:30:55.651Z,15.60
2023-04-12T09:33:36.515Z,12.82
2023-04-12T09:36:09.386Z,13.98
2023-04-12T09:38:39.527Z,14.02
2023-04-12T09:41:23.677Z,14.40
2023-04-12T09:43:56.212Z,14.55
2023-04-12T09:46:25.225Z,14.45
2023-04-12T09:48:58.961Z,14.25
2023-04-12T09:51:30.241Z,14.20
2023-04-12T09:54:01.695Z,13.80
2023-04-12T09:56:33.728Z,14.13
2023-04-12T09:59:05.310Z,14.40
2023-04-12T10:01:37.605Z,13.63
2023-04-12T10:04:10.636Z,13.73
2023-04-12T10:06:41.551Z,14.13
2023-04-12T10:09:11.965Z,14.75
2023-04-12T10:11:42.520Z,14.55
2023-04-12T10:14:14.419Z,13.10
2023-04-12T10:16:46.208Z,13.68
2023-04-12T10:19:18.189Z,13.60
2023-04-12T10:21:47.033Z,12.13
2023-04-12T10:24:17.470Z,12.02
2023-04-12T10:26:46.386Z,12.60
2023-04-12T10:29:30.299Z,11.93
2023-04-12T10:32:19.407Z,13.20
2023-04-12T10:34:56.526Z,13.18
2023-04-12T10:38:02.581Z,12.80
2023-04-12T10:40:33.868Z,12.75
2023-04-12T10:43:30.465Z,11.90
2023-04-12T10:46:04.394Z,11.57
2023-04-12T10:48:35.832Z,12.77
2023-04-12T10:51:23.529Z,15.60
2023-04-12T10:53:52.904Z,12.55
2023-04-12T10:56:41.821Z,13.27
2023-04-12T10:59:16.303Z,12.15
2023-04-12T11:02:11.732Z,11.85
2023-04-12T11:05:09.990Z,12.52
2023-04-12T11:07:55.387Z,12.40
2023-04-12T11:11:01.063Z,11.85
2023-04-12T11:13:37.449Z,11.52
2023-04-12T11:16:08.778Z,11.48
2023-04-12T11:18:37.919Z,11.57
2023-04-12T11:21:08.380Z,11.95
2023-04-12T11:23:43.359Z,11.13
2023-04-12T11:26:12.287Z,10.98
2023-04-12T11:28:41.309Z,11.68
2023-04-12T11:31:10.137Z,10.98
2023-04-12T11:33:41.520Z,10.98
2023-04-12T11:36:13.345Z,11.40
2023-04-12T11:38:46.304Z,11.85
2023-04-12T11:41:16.897Z,10.88
2023-04-12T11:43:47.312Z,10.93
2023-04-12T11:46:18.277Z,10.80
2023-04-12T11:48:47.743Z,11.90
2023-04-12T11:51:25.218Z,12.48
2023-04-12T11:53:57.208Z,11.88
2023-04-12T11:56:27.393Z,11.95
2023-04-12T11:58:56.580Z,12.07
2023-04-12T12:01:27.850Z,11.98
2023-04-12T12:03:58.225Z,11.77
2023-04-12T12:06:28.805Z,10.95
2023-04-12T12:09:00.286Z,10.82
2023-04-12T12:11:29.285Z,11.75
2023-04-12T12:14:00.563Z,11.38
2023-04-12T12:16:31.423Z,12.77
2023-04-12T12:19:05.344Z,11.23
2023-04-12T12:21:34.134Z,11.68
2023-04-12T12:24:04.624Z,11.10
2023-04-12T12:26:33.311Z,11.27
2023-04-12T12:29:02.708Z,10.95
2023-04-12T12:31:33.083Z,11.95
2023-04-12T12:34:04.253Z,11.23
2023-04-12T12:36:36.713Z,9.93
2023-04-12T12:39:10.530Z,10.63
2023-04-12T12:41:40.909Z,12.27
2023-04-12T12:44:11.261Z,10.25
2023-04-12T12:46:52.426Z,9.70
2023-04-12T12:49:22.852Z,10.80
2023-04-12T12:51:52.382Z,10.23
2023-04-12T12:54:39.488Z,10.63
2023-04-12T12:57:09.886Z,10.88
2023-04-12T12:59:38.954Z,10.70
2023-04-12T13:02:08.723Z,12.88
2023-04-12T13:04:38.423Z,11.25
2023-04-12T13:07:07.269Z,11.00
2023-04-12T13:09:37.765Z,10.95
2023-04-12T13:12:06.721Z,11.50
2023-04-12T13:14:35.701Z,12.75
2023-04-12T13:17:04.519Z,10.98
2023-04-12T13:19:33.561Z,11.70
2023-04-12T13:22:02.409Z,12.00
2023-04-12T13:24:31.485Z,10.80
2023-04-12T13:27:02.973Z,12.15
2023-04-12T13:29:32.289Z,10.98
2023-04-12T13:32:01.132Z,13.15
2023-04-12T13:34:30.563Z,10.52
2023-04-12T13:36:59.745Z,12.35
2023-04-12T13:39:29.313Z,11.95
2023-04-12T13:41:59.222Z,11.15
2023-04-12T13:44:29.820Z,10.63
2023-04-12T13:46:58.590Z,12.13
2023-04-12T13:49:27.531Z,9.82
2023-04-12T13:51:57.428Z,10.73
2023-04-12T13:54:26.490Z,10.73
2023-04-12T13:56:55.261Z,10.00
2023-04-12T13:59:24.635Z,10.18
2023-04-12T14:01:55.711Z,9.90
2023-04-12T14:04:25.017Z,10.07
2023-04-12T14:06:53.765Z,10.07
2023-04-12T14:09:25.954Z,10.65
2023-04-12T14:11:56.512Z,11.02
2023-04-12T14:14:27.572Z,10.25
2023-04-12T14:16:58.014Z,10.32
2023-04-12T14:19:27.147Z,11.30
2023-04-12T14:21:56.062Z,11.55
2023-04-12T14:24:25.221Z,11.00
2023-04-12T14:26:54.454Z,10.88
2023-04-12T14:29:23.527Z,11.02
2023-04-12T14:31:52.321Z,10.60
2023-04-12T14:34:22.713Z,11.05
2023-04-12T14:36:51.475Z,10.07
2023-04-12T14:39:20.483Z,10.65
2023-04-12T14:41:49.178Z,10.38
2023-04-12T14:44:20.179Z,10.90
2023-04-12T14:46:49.775Z,10.57
2023-04-12T14:49:18.891Z,10.25
2023-04-12T14:51:48.981Z,10.02
2023-04-12T14:54:18.062Z,10.40
2023-04-12T14:56:53.187Z,10.75
2023-04-12T14:59:24.176Z,10.55
2023-04-12T15:01:53.436Z,10.77
2023-04-12T15:04:22.766Z,11.38
2023-04-12T15:06:52.845Z,11.05
2023-04-12T15:09:21.877Z,11.35
2023-04-12T15:12:00.758Z,10.82
2023-04-12T15:14:30.256Z,11.27
2023-04-12T15:16:58.985Z,10.82
2023-04-12T15:19:28.028Z,11.50
2023-04-12T15:21:58.676Z,11.15
2023-04-12T15:24:27.768Z,10.93
2023-04-12T15:26:56.739Z,11.13
2023-04-12T15:29:27.863Z,12.30
2023-04-12T15:31:57.051Z,12.40
2023-04-12T15:34:28.440Z,11.50
2023-04-12T15:36:59.120Z,11.68
2023-04-12T15:39:28.327Z,12.52
2023-04-12T15:41:56.950Z,13.23
2023-04-12T15:44:31.611Z,12.90
2023-04-12T15:47:10.992Z,12.70
2023-04-12T15:49:41.436Z,12.27
2023-04-12T15:52:12.980Z,13.13
2023-04-12T15:54:43.856Z,12.60
2023-04-12T15:57:12.784Z,13.57
2023-04-12T15:59:43.090Z,12.60
2023-04-12T16:02:11.889Z,12.73
2023-04-12T16:04:43.863Z,12.55
2023-04-12T16:07:14.720Z,11.70
2023-04-12T16:09:44.144Z,11.70
2023-04-12T16:12:12.864Z,11.52
2023-04-12T16:14:43.620Z,10.60
2023-04-12T16:17:12.522Z,12.02
2023-04-12T16:19:41.894Z,12.13
2023-04-12T16:22:10.962Z,12.02
2023-04-12T16:24:41.370Z,11.77
2023-04-12T16:27:10.997Z,12.70
2023-04-12T16:29:40.358Z,12.45
2023-04-12T16:32:09.811Z,11.85
2023-04-12T16:34:41.305Z,12.00
2023-04-12T16:37:10.528Z,12.65
2023-04-12T16:39:40.933Z,12.05
2023-04-12T16:42:09.612Z,12.10
2023-04-12T16:44:38.747Z,11.80
2023-04-12T16:47:09.433Z,10.75
2023-04-12T16:49:38.521Z,11.45
2023-04-12T16:52:07.322Z,10.85
2023-04-12T16:54:36.303Z,11.27
2023-04-12T16:57:06.904Z,10.98
2023-04-12T16:59:35.875Z,11.32
2023-04-12T17:02:05.451Z,10.32
2023-04-12T17:04:34.675Z,9.88
2023-04-12T17:07:03.456Z,9.88
2023-04-12T17:09:32.475Z,9.68
2023-04-12T17:12:01.295Z,9.80
2023-04-12T17:14:32.406Z,9.00
2023-04-12T17:17:01.765Z,10.15
2023-04-12T17:19:32.209Z,9.50
2023-04-12T17:22:00.971Z,10.23
2023-04-12T17:24:30.057Z,10.02
2023-04-12T17:26:59.279Z,9.70
2023-04-12T17:29:29.168Z,10.07
2023-04-12T17:31:59.919Z,9.93
2023-04-12T17:34:28.921Z,10.73
2023-04-12T17:36:57.608Z,11.15
2023-04-12T17:39:26.753Z,9.95
2023-04-12T17:41:56.009Z,10.65
2023-04-12T17:44:25.057Z,10.13
2023-04-12T17:46:53.819Z,11.32
2023-04-12T17:49:25.297Z,10.95
2023-04-12T17:51:54.034Z,11.05
2023-04-12T17:54:23.140Z,11.18
2023-04-12T17:56:52.283Z,12.32
2023-04-12T17:59:22.146Z,12.52
2023-04-12T18:01:51.122Z,12.32
2023-04-12T18:04:20.375Z,12.15
2023-04-12T18:06:50.675Z,11.23
2023-04-12T18:09:19.996Z,11.30
2023-04-12T18:11:48.725Z,11.02
2023-04-12T18:14:17.730Z,10.85
2023-04-12T18:16:46.445Z,11.30
2023-04-12T18:19:19.156Z,11.38
2023-04-12T18:21:49.519Z,12.15
2023-04-12T18:24:19.960Z,10.65
2023-04-12T18:26:48.694Z,12.73
2023-04-12T18:29:18.531Z,11.70
2023-04-12T18:31:47.229Z,12.63
2023-04-12T18:34:18.967Z,12.65
2023-04-12T18:36:47.791Z,13.52
2023-04-12T18:39:17.411Z,12.00
2023-04-12T18:41:47.500Z,12.63
2023-04-12T18:44:19.256Z,12.43
2023-04-12T18:46:48.135Z,12.35
2023-04-12T18:49:17.304Z,12.95
2023-04-12T18:51:46.268Z,11.77
2023-04-12T18:54:17.503Z,12.68
2023-04-12T18:56:47.655Z,13.60
2023-04-12T18:59:17.814Z,12.75
2023-04-12T19:01:47.256Z,11.98
2023-04-12T19:04:16.813Z,12.50
2023-04-12T19:06:47.308Z,13.82
2023-04-12T19:09:16.450Z,17.40
2023-04-12T19:11:45.404Z,15.90
2023-04-12T19:14:16.188Z,15.30
2023-04-12T19:16:44.980Z,15.95
2023-04-12T19:19:14.017Z,13.73
2023-04-12T19:21:42.784Z,14.35
2023-04-12T19:24:12.413Z,14.30
2023-04-12T19:26:46.891Z,13.95
2023-04-12T19:29:18.811Z,13.95
2023-04-12T19:31:49.127Z,13.88
2023-04-12T19:34:18.407Z,14.23
2023-04-12T19:36:47.672Z,14.52
2023-04-12T19:39:18.559Z,15.43
2023-04-12T19:41:49.238Z,16.20
2023-04-12T19:44:19.783Z,17.65
2023-04-12T19:46:48.521Z,18.02
2023-04-12T19:49:17.625Z,19.65
2023-04-12T19:51:47.607Z,18.67
2023-04-12T19:54:18.700Z,25.02
2023-04-12T19:56:49.719Z,24.77
2023-04-12T19:59:21.098Z,25.55
2023-04-12T20:01:50.408Z,25.65
2023-04-12T20:04:22.282Z,24.15
2023-04-12T20:06:53.020Z,24.30
2023-04-12T20:09:23.831Z,22.20
2023-04-12T20:11:52.571Z,21.55
2023-04-12T20:14:24.408Z,19.77
2023-04-12T20:16:56.774Z,19.60
2023-04-12T20:19:28.579Z,18.83
2023-04-12T20:22:01.769Z,17.83
2023-04-12T20:24:34.381Z,18.08
2023-04-12T20:27:03.751Z,17.33
2023-04-12T20:29:36.169Z,16.75
2023-04-12T20:32:05.152Z,16.45
2023-04-12T20:34:34.297Z,16.58
2023-04-12T20:37:03.146Z,16.40
2023-04-12T20:39:32.292Z,16.88
2023-04-12T20:42:01.328Z,14.80
2023-04-12T20:44:30.350Z,17.15
2023-04-12T20:47:00.516Z,16.35
2023-04-12T20:49:31.081Z,15.57
2023-04-12T20:52:00.520Z,16.20
2023-04-12T20:54:31.583Z,16.55
2023-04-12T20:57:04.163Z,15.68
2023-04-12T20:59:33.927Z,16.20
2023-04-12T21:02:04.694Z,16.35
2023-04-12T21:04:36.291Z,17.13
2023-04-12T21:07:06.056Z,16.17
2023-04-12T21:09:35.350Z,16.20
2023-04-12T21:12:06.188Z,16.83
2023-04-12T21:14:37.576Z,15.77
2023-04-12T21:17:08.823Z,16.70
2023-04-12T21:19:41.026Z,17.42
2023-04-12T21:22:09.718Z,15.82
2023-04-12T21:24:39.164Z,16.00
2023-04-12T21:27:08.811Z,15.00
2023-04-12T21:29:41.376Z,15.25
2023-04-12T21:32:12.455Z,15.40
2023-04-12T21:34:41.392Z,15.10
2023-04-12T21:37:10.939Z,16.05
2023-04-12T21:39:40.156Z,15.82
2023-04-12T21:42:09.007Z,16.98
2023-04-12T21:44:39.634Z,15.73
2023-04-12T21:47:08.342Z,16.25
2023-04-12T21:49:38.667Z,16.38
2023-04-12T21:52:07.394Z,17.38
2023-04-12T21:54:37.083Z,16.05
2023-04-12T21:57:06.251Z,16.02
2023-04-12T21:59:35.369Z,16.13
2023-04-12T22:02:04.238Z,18.30
2023-04-12T22:04:34.420Z,18.05
2023-04-12T22:07:06.349Z,16.90
2023-04-12T23:51:34.234Z,17.58
2023-04-12T23:54:03.548Z,17.70
2023-04-12T23:56:32.270Z,19.33
2023-04-12T23:59:01.369Z,17.95
